Time;durP1;ratioP1;P1;durP2;ratioP2;P2;SDS_P1;SDS_P2;PMS_P1;PMS_P2;Temp;Humidity;BMP_temperature;BMP_pressure;BME280_temperature;BME280_humidity;BME280_pressure;Samples;Min_cycle;Max_cycle;Signal;HPM_P1;HPM_P2
2021/06/07 00:01:19;;;;;;;79.53;48.65;;;15.50;99.90;;;;;;5026535;28;20053;-78
2021/06/07 00:03:47;;;;;;;75.43;49.65;;;15.60;99.90;;;;;;5050948;28;20080;-78
2021/06/07 00:06:13;;;;;;;78.75;49.30;;;15.60;99.90;;;;;;5025681;28;20060;-78
2021/06/07 00:08:41;;;;;;;77.18;49.88;;;15.50;99.90;;;;;;5054725;28;20529;-78
2021/06/07 00:11:08;;;;;;;72.82;48.63;;;15.50;99.90;;;;;;5062242;28;20206;-78
2021/06/07 00:13:36;;;;;;;73.88;49.83;;;15.40;99.90;;;;;;5051019;28;20040;-78
2021/06/07 00:16:04;;;;;;;84.07;52.70;;;15.40;99.90;;;;;;5055575;28;20060;-78
2021/06/07 00:18:31;;;;;;;82.95;53.58;;;15.40;99.90;;;;;;5036447;28;20053;-78
2021/06/07 00:21:03;;;;;;;80.60;50.75;;;15.50;99.90;;;;;;5051494;28;20083;-78
2021/06/07 00:23:30;;;;;;;86.85;53.75;;;15.50;99.90;;;;;;5038576;28;20122;-78
2021/06/07 00:25:57;;;;;;;83.20;53.05;;;15.50;99.90;;;;;;5043407;28;20056;-78
2021/06/07 00:28:23;;;;;;;80.20;53.10;;;15.50;99.90;;;;;;5042821;28;20532;-78
2021/06/07 00:30:50;;;;;;;78.57;52.33;;;15.50;99.90;;;;;;5031309;28;20067;-78
2021/06/07 00:33:17;;;;;;;85.03;52.92;;;15.60;99.90;;;;;;5042644;28;20044;-78
2021/06/07 00:35:44;;;;;;;84.65;52.35;;;15.60;99.90;;;;;;5052451;28;20036;-78
2021/06/07 00:38:11;;;;;;;82.00;53.25;;;15.50;99.90;;;;;;5051305;28;20170;-78
2021/06/07 00:40:38;;;;;;;79.40;52.33;;;15.40;99.90;;;;;;5049041;28;20059;-78
2021/06/07 00:43:06;;;;;;;86.68;53.63;;;15.50;99.90;;;;;;5050281;28;20029;-78
2021/06/07 00:45:34;;;;;;;82.78;52.30;;;15.40;99.90;;;;;;5062237;28;20656;-77
2021/06/07 00:48:03;;;;;;;76.75;53.42;;;15.40;99.90;;;;;;5049753;28;20043;-78
2021/06/07 00:50:58;;;;;;;86.72;53.70;;;15.20;99.90;;;;;;5058497;28;20060;-77
2021/06/07 00:53:25;;;;;;;86.72;53.65;;;15.20;99.90;;;;;;5049451;28;20114;-77
2021/06/07 00:55:55;;;;;;;88.25;55.63;;;15.10;99.90;;;;;;5062804;28;20550;-77
2021/06/07 00:58:31;;;;;;;83.88;53.78;;;15.20;99.90;;;;;;5063290;28;20136;-77
2021/06/07 01:00:59;;;;;;;84.43;53.35;;;15.20;99.90;;;;;;5061299;28;20060;-77
2021/06/07 01:03:27;;;;;;;84.18;55.08;;;15.10;99.90;;;;;;5021786;28;20064;-79
2021/06/07 01:05:54;;;;;;;88.65;54.72;;;15.10;99.90;;;;;;5053332;28;20056;-79
2021/06/07 01:08:23;;;;;;;91.25;55.25;;;15.10;99.90;;;;;;5054350;28;20421;-77
2021/06/07 01:10:52;;;;;;;87.88;54.53;;;15.00;99.90;;;;;;5061475;28;20052;-77
2021/06/07 01:13:19;;;;;;;94.38;56.75;;;15.00;99.90;;;;;;5060217;28;20041;-79
2021/06/07 01:15:47;;;;;;;87.55;53.67;;;15.00;99.90;;;;;;5055306;28;20048;-79
2021/06/07 01:18:19;;;;;;;85.88;54.67;;;15.10;99.90;;;;;;5033330;28;20057;-77
2021/06/07 01:20:49;;;;;;;83.57;52.33;;;15.10;99.90;;;;;;5048020;28;20049;-77
2021/06/07 01:23:16;;;;;;;85.38;54.67;;;15.10;99.90;;;;;;5056402;28;20115;-76
2021/06/07 01:25:44;;;;;;;79.05;51.88;;;15.00;99.90;;;;;;5059069;28;20045;-76
2021/06/07 01:28:16;;;;;;;77.35;51.72;;;15.00;99.90;;;;;;5053188;28;20098;-77
2021/06/07 01:30:49;;;;;;;79.90;51.22;;;14.80;99.90;;;;;;5061976;28;20551;-77
2021/06/07 01:33:19;;;;;;;85.50;51.92;;;14.80;99.90;;;;;;5054229;28;20147;-77
2021/06/07 01:35:49;;;;;;;82.20;55.83;;;14.90;99.90;;;;;;5053001;28;20040;-77
2021/06/07 01:38:16;;;;;;;82.25;52.55;;;14.90;99.90;;;;;;5057177;28;20044;-80
2021/06/07 01:40:56;;;;;;;82.30;51.88;;;15.00;99.90;;;;;;5062527;28;20464;-77
2021/06/07 01:43:23;;;;;;;84.53;54.00;;;14.90;99.90;;;;;;5045629;28;20295;-77
2021/06/07 01:45:51;;;;;;;75.40;48.70;;;15.00;99.90;;;;;;5051304;28;20040;-77
2021/06/07 01:48:19;;;;;;;76.70;50.80;;;14.90;99.90;;;;;;5028869;28;20070;-76
2021/06/07 01:50:48;;;;;;;81.47;52.45;;;15.00;99.90;;;;;;5040920;28;20033;-76
2021/06/07 01:53:17;;;;;;;81.13;51.42;;;15.00;99.90;;;;;;5032564;28;20636;-76
2021/06/07 01:55:50;;;;;;;77.07;48.90;;;15.00;99.90;;;;;;5028819;28;20044;-77
2021/06/07 01:58:19;;;;;;;74.35;50.45;;;15.10;99.90;;;;;;5042548;28;20060;-77
2021/06/07 02:00:56;;;;;;;75.93;52.05;;;15.00;99.90;;;;;;5028790;28;20314;-77
2021/06/07 02:03:25;;;;;;;61.67;47.08;;;15.00;99.90;;;;;;5061704;28;20091;-79
2021/06/07 02:05:56;;;;;;;70.35;51.45;;;15.10;99.90;;;;;;5060540;28;20048;-79
2021/06/07 02:08:24;;;;;;;69.22;50.28;;;15.10;99.90;;;;;;5054164;28;20053;-76
2021/06/07 02:10:54;;;;;;;73.97;50.47;;;14.90;99.90;;;;;;5060904;28;20041;-76
2021/06/07 02:13:22;;;;;;;69.53;49.42;;;14.90;99.90;;;;;;5053038;28;20057;-77
2021/06/07 02:16:06;;;;;;;74.40;52.47;;;15.00;99.90;;;;;;5031554;28;20461;-79
2021/06/07 02:18:35;;;;;;;70.50;49.85;;;15.10;99.90;;;;;;5021096;28;20479;-77
2021/06/07 02:21:04;;;;;;;74.00;50.47;;;15.10;99.90;;;;;;5032587;28;20080;-79
2021/06/07 02:23:31;;;;;;;75.25;51.45;;;15.20;99.90;;;;;;5035576;28;20056;-77
2021/06/07 02:25:58;;;;;;;77.45;51.15;;;15.10;99.90;;;;;;5045997;28;20114;-77
2021/06/07 02:28:25;;;;;;;73.05;48.40;;;15.10;99.90;;;;;;5028301;28;20045;-79
2021/06/07 02:30:52;;;;;;;69.18;48.50;;;15.10;99.90;;;;;;5043784;28;20041;-77
2021/06/07 02:33:19;;;;;;;75.70;50.85;;;15.10;99.90;;;;;;5040502;28;20057;-77
2021/06/07 02:35:47;;;;;;;72.88;48.88;;;15.20;99.90;;;;;;5018703;28;20063;-79
2021/06/07 02:38:15;;;;;;;69.88;48.55;;;15.00;99.90;;;;;;5042684;28;20060;-79
2021/06/07 02:40:44;;;;;;;72.30;49.42;;;15.00;99.90;;;;;;5045686;28;20231;-77
2021/06/07 02:43:11;;;;;;;74.82;50.92;;;15.00;99.90;;;;;;5044034;28;20064;-77
2021/06/07 02:45:38;;;;;;;76.47;51.42;;;15.10;99.90;;;;;;5035665;28;20048;-77
2021/06/07 02:48:06;;;;;;;80.82;53.03;;;15.00;99.90;;;;;;5032748;28;20061;-79
2021/06/07 02:50:42;;;;;;;84.28;54.65;;;15.10;99.90;;;;;;5029613;28;20052;-76
2021/06/07 02:53:09;;;;;;;76.95;54.70;;;15.10;99.90;;;;;;5013979;28;20065;-79
2021/06/07 02:55:39;;;;;;;86.15;54.10;;;15.20;99.90;;;;;;5031471;28;20036;-77
2021/06/07 02:58:06;;;;;;;91.15;56.35;;;15.20;99.90;;;;;;5038432;28;20131;-79
2021/06/07 03:00:37;;;;;;;88.90;54.65;;;15.10;99.90;;;;;;5044859;28;20049;-78
2021/06/07 03:03:05;;;;;;;94.75;57.30;;;15.10;99.90;;;;;;5021457;28;20069;-78
2021/06/07 03:05:33;;;;;;;91.03;57.90;;;15.10;99.90;;;;;;5037116;28;20040;-78
2021/06/07 03:08:02;;;;;;;91.20;57.22;;;15.10;99.90;;;;;;5040221;28;20568;-78
2021/06/07 03:10:29;;;;;;;87.65;56.30;;;15.00;99.90;;;;;;5031000;28;20041;-78
2021/06/07 03:12:56;;;;;;;94.50;58.50;;;14.90;99.90;;;;;;5043128;28;20242;-78
2021/06/07 03:15:24;;;;;;;99.05;57.28;;;14.90;99.90;;;;;;5030132;28;20068;-78
2021/06/07 03:17:52;;;;;;;90.55;58.33;;;14.80;99.90;;;;;;5035346;28;20045;-78
2021/06/07 03:20:22;;;;;;;89.97;56.25;;;14.80;99.90;;;;;;5025862;28;20239;-78
2021/06/07 03:22:49;;;;;;;102.15;60.53;;;14.70;99.90;;;;;;5034320;28;20049;-78
2021/06/07 03:25:16;;;;;;;90.35;57.03;;;14.80;99.90;;;;;;5025953;28;20136;-78
2021/06/07 03:27:43;;;;;;;97.28;60.65;;;14.90;99.90;;;;;;5013523;28;20045;-78
2021/06/07 03:30:11;;;;;;;92.65;58.47;;;14.90;99.90;;;;;;5033149;28;20052;-78
2021/06/07 03:32:38;;;;;;;96.32;60.40;;;14.90;99.90;;;;;;5047339;28;20111;-78
2021/06/07 03:35:11;;;;;;;105.45;61.10;;;14.80;99.90;;;;;;5049595;28;20037;-77
2021/06/07 03:37:39;;;;;;;96.43;58.10;;;14.80;99.90;;;;;;5019859;28;20045;-78
2021/06/07 03:40:18;;;;;;;98.88;60.70;;;14.80;99.90;;;;;;5025339;28;20072;-78
2021/06/07 03:42:46;;;;;;;97.35;59.13;;;14.70;99.90;;;;;;5027954;28;20053;-78
2021/06/07 03:45:14;;;;;;;110.07;62.88;;;14.60;99.90;;;;;;5061206;28;20056;-78
2021/06/07 03:47:41;;;;;;;108.13;63.90;;;14.60;99.90;;;;;;5035037;28;20053;-78
2021/06/07 03:50:09;;;;;;;116.10;68.53;;;14.50;99.90;;;;;;5044922;28;20065;-78
2021/06/07 03:52:37;;;;;;;113.28;63.88;;;14.50;99.90;;;;;;5055305;28;20049;-78
2021/06/07 03:55:08;;;;;;;109.07;63.42;;;14.30;99.90;;;;;;5044340;28;20064;-78
2021/06/07 03:57:35;;;;;;;103.82;62.00;;;14.20;99.90;;;;;;5024870;28;20470;-78
2021/06/07 04:00:08;;;;;;;96.97;59.13;;;14.20;99.90;;;;;;5039833;28;20099;-78
2021/06/07 04:02:41;;;;;;;91.22;59.28;;;14.20;99.90;;;;;;5037227;28;20049;-78
2021/06/07 04:05:09;;;;;;;87.80;56.67;;;14.30;99.90;;;;;;5034594;28;20058;-78
2021/06/07 04:07:36;;;;;;;85.53;55.97;;;14.30;99.90;;;;;;5054692;28;20044;-77
2021/06/07 04:10:06;;;;;;;88.63;56.42;;;14.40;99.90;;;;;;5045955;28;20051;-79
2021/06/07 04:12:33;;;;;;;86.78;55.40;;;14.60;99.90;;;;;;5067435;28;20047;-78
2021/06/07 04:15:01;;;;;;;82.78;56.22;;;14.60;99.90;;;;;;5054639;28;20063;-78
2021/06/07 04:17:27;;;;;;;82.55;54.83;;;14.60;99.90;;;;;;5059259;28;20071;-78
2021/06/07 04:19:54;;;;;;;82.95;53.83;;;14.60;99.90;;;;;;5029130;28;20502;-78
2021/06/07 04:22:21;;;;;;;81.72;54.22;;;14.50;99.90;;;;;;5038677;28;20045;-78
2021/06/07 04:24:48;;;;;;;73.15;52.40;;;14.50;99.90;;;;;;5032317;28;20045;-78
2021/06/07 04:27:16;;;;;;;77.28;51.72;;;14.50;99.90;;;;;;5049299;28;20083;-78
2021/06/07 04:29:44;;;;;;;71.53;51.72;;;14.60;99.90;;;;;;5034311;28;20124;-78
2021/06/07 04:32:11;;;;;;;71.22;50.28;;;14.60;99.90;;;;;;5046461;28;20076;-78
2021/06/07 04:34:37;;;;;;;74.60;49.38;;;14.50;99.90;;;;;;5044879;28;20060;-78
2021/06/07 04:37:05;;;;;;;69.40;48.35;;;14.50;99.90;;;;;;5026457;28;20562;-78
2021/06/07 04:39:32;;;;;;;70.97;48.20;;;14.50;99.90;;;;;;5025276;28;20045;-78
2021/06/07 04:41:59;;;;;;;65.35;48.20;;;14.50;99.90;;;;;;5037205;28;20053;-78
2021/06/07 04:44:26;;;;;;;72.57;49.83;;;14.60;99.90;;;;;;5039741;28;20072;-78
2021/06/07 04:46:53;;;;;;;63.08;47.03;;;14.50;99.90;;;;;;5038639;28;20454;-78
2021/06/07 04:49:20;;;;;;;63.78;47.83;;;14.60;99.90;;;;;;5042712;28;20060;-77
2021/06/07 04:51:46;;;;;;;62.72;46.78;;;14.70;99.90;;;;;;5024825;28;20049;-77
2021/06/07 04:54:13;;;;;;;64.88;48.83;;;14.80;99.90;;;;;;5043613;28;20049;-77
2021/06/07 04:56:40;;;;;;;62.90;45.20;;;14.90;99.90;;;;;;5042458;28;20573;-78
2021/06/07 04:59:07;;;;;;;62.28;44.97;;;14.90;99.90;;;;;;5043862;28;20057;-77
2021/06/07 05:01:34;;;;;;;68.45;45.53;;;14.90;99.90;;;;;;5042537;28;20060;-77
2021/06/07 05:04:01;;;;;;;63.53;46.30;;;15.00;99.90;;;;;;5042281;28;20592;-77
2021/06/07 05:06:28;;;;;;;54.75;43.38;;;15.00;99.90;;;;;;5036577;28;20057;-78
2021/06/07 05:08:54;;;;;;;58.05;42.63;;;15.10;99.90;;;;;;5032071;28;20068;-78
2021/06/07 05:11:21;;;;;;;57.25;42.60;;;15.10;99.90;;;;;;5035857;28;20045;-78
2021/06/07 05:13:48;;;;;;;58.60;43.92;;;15.20;99.90;;;;;;5041093;28;20049;-78
2021/06/07 05:16:15;;;;;;;51.58;40.55;;;15.20;99.90;;;;;;5036823;28;20107;-77
2021/06/07 05:18:42;;;;;;;54.97;41.83;;;15.20;99.90;;;;;;5017367;28;20045;-78
2021/06/07 05:21:09;;;;;;;54.92;42.85;;;15.30;99.90;;;;;;5030879;28;20068;-78
2021/06/07 05:23:36;;;;;;;52.60;42.55;;;15.40;99.90;;;;;;5032256;28;20103;-77
2021/06/07 05:26:03;;;;;;;53.35;40.33;;;15.50;99.90;;;;;;5033212;28;20045;-78
2021/06/07 05:28:30;;;;;;;55.63;38.40;;;15.50;99.90;;;;;;5029238;28;20443;-77
2021/06/07 05:30:57;;;;;;;52.05;39.45;;;15.50;99.90;;;;;;5028415;28;20478;-78
2021/06/07 05:33:24;;;;;;;50.53;39.33;;;15.50;99.90;;;;;;5042797;28;20053;-78
2021/06/07 05:35:52;;;;;;;51.33;38.83;;;15.50;99.90;;;;;;5031457;28;20127;-77
2021/06/07 05:38:20;;;;;;;47.85;36.55;;;15.50;99.90;;;;;;5053994;28;20080;-78
2021/06/07 05:40:49;;;;;;;47.67;37.97;;;15.60;99.90;;;;;;5024179;28;20060;-78
2021/06/07 05:43:18;;;;;;;50.92;39.13;;;15.80;99.90;;;;;;5011067;28;20068;-78
2021/06/07 05:45:46;;;;;;;61.38;41.33;;;15.80;99.90;;;;;;5021211;28;20049;-78
2021/06/07 05:48:12;;;;;;;49.33;39.15;;;15.80;99.90;;;;;;5031356;28;20052;-78
2021/06/07 05:50:40;;;;;;;47.95;37.97;;;15.70;99.90;;;;;;5044225;28;20076;-78
2021/06/07 05:53:07;;;;;;;50.13;40.00;;;15.70;99.90;;;;;;5042030;28;20487;-79
2021/06/07 05:55:37;;;;;;;54.95;38.95;;;15.80;99.90;;;;;;5044634;28;20079;-78
2021/06/07 05:58:07;;;;;;;49.00;36.03;;;15.70;99.90;;;;;;5028066;28;20065;-78
2021/06/07 06:00:37;;;;;;;48.55;38.28;;;15.70;99.90;;;;;;5045055;28;20127;-78
2021/06/07 06:03:05;;;;;;;51.22;38.70;;;15.60;99.90;;;;;;5043363;28;20598;-78
2021/06/07 06:05:32;;;;;;;51.80;38.33;;;15.50;99.90;;;;;;5019084;28;20619;-78
2021/06/07 06:07:59;;;;;;;48.30;37.88;;;15.50;99.90;;;;;;5035292;28;20041;-78
2021/06/07 06:10:26;;;;;;;57.42;40.80;;;15.50;99.90;;;;;;5041988;28;20083;-78
2021/06/07 06:12:53;;;;;;;51.95;38.25;;;15.30;99.90;;;;;;5018022;28;20057;-78
2021/06/07 06:15:23;;;;;;;51.00;39.95;;;15.30;99.90;;;;;;5035849;28;20040;-78
2021/06/07 06:17:52;;;;;;;43.85;35.30;;;15.40;99.90;;;;;;5034855;28;20084;-78
2021/06/07 06:20:19;;;;;;;47.63;36.17;;;15.40;99.90;;;;;;5033741;28;20072;-78
2021/06/07 06:22:47;;;;;;;45.38;35.17;;;15.40;99.90;;;;;;5011616;28;20175;-75
2021/06/07 06:25:16;;;;;;;44.25;32.88;;;15.50;99.90;;;;;;5025564;28;20041;-78
2021/06/07 06:27:44;;;;;;;41.92;32.55;;;15.40;99.90;;;;;;5039845;28;20045;-78
2021/06/07 06:30:16;;;;;;;38.50;33.17;;;15.50;99.90;;;;;;5037663;28;20065;-77
2021/06/07 06:32:46;;;;;;;38.47;31.38;;;15.50;99.90;;;;;;5030457;28;20054;-77
2021/06/07 06:35:13;;;;;;;38.00;32.15;;;15.50;99.90;;;;;;5020652;28;20049;-78
2021/06/07 06:37:43;;;;;;;38.42;29.80;;;15.60;99.90;;;;;;5043550;28;20526;-78
2021/06/07 06:40:14;;;;;;;30.15;27.10;;;16.00;99.90;;;;;;5044941;28;20071;-78
2021/06/07 06:42:42;;;;;;;32.47;28.88;;;16.40;99.90;;;;;;5045114;28;20319;-78
2021/06/07 06:45:09;;;;;;;32.60;28.95;;;16.90;99.90;;;;;;5026542;28;20052;-77
2021/06/07 06:47:37;;;;;;;33.75;30.13;;;17.40;99.90;;;;;;5044762;28;20049;-77
2021/06/07 06:50:06;;;;;;;30.38;27.30;;;17.70;99.90;;;;;;5024087;28;20045;-78
2021/06/07 06:52:33;;;;;;;29.98;26.95;;;17.30;99.90;;;;;;5043883;28;20045;-78
2021/06/07 06:55:00;;;;;;;34.65;28.58;;;17.20;99.90;;;;;;5043254;28;20053;-78
2021/06/07 06:57:27;;;;;;;32.60;29.17;;;17.10;99.90;;;;;;5032485;28;20755;-78
2021/06/07 06:59:54;;;;;;;30.17;27.30;;;17.20;99.90;;;;;;5043099;28;20103;-77
2021/06/07 07:02:21;;;;;;;28.42;25.50;;;17.40;99.90;;;;;;5018914;28;20041;-80
2021/06/07 07:04:48;;;;;;;28.33;25.50;;;17.60;99.90;;;;;;5030430;28;20168;-77
2021/06/07 07:07:15;;;;;;;30.95;27.73;;;17.80;99.90;;;;;;5039490;28;20045;-77
2021/06/07 07:09:43;;;;;;;30.13;27.02;;;17.60;99.90;;;;;;5018241;28;20052;-79
2021/06/07 07:12:11;;;;;;;31.80;28.50;;;17.50;99.90;;;;;;5025946;28;20470;-79
2021/06/07 07:14:39;;;;;;;30.52;27.38;;;17.50;99.90;;;;;;5019856;28;20127;-77
2021/06/07 07:17:06;;;;;;;29.45;26.45;;;17.60;99.90;;;;;;5024474;28;20049;-77
2021/06/07 07:19:36;;;;;;;22.02;20.23;;;17.70;99.90;;;;;;5027595;28;20066;-76
2021/06/07 07:22:04;;;;;;;26.15;23.65;;;17.80;99.90;;;;;;5027296;28;20115;-77
2021/06/07 07:24:31;;;;;;;26.05;23.55;;;17.80;99.90;;;;;;5035270;28;20495;-79
2021/06/07 07:26:57;;;;;;;29.00;26.25;;;17.80;99.90;;;;;;5041045;28;20064;-77
2021/06/07 07:29:24;;;;;;;28.75;25.98;;;17.90;99.90;;;;;;5044219;28;20064;-77
2021/06/07 07:31:51;;;;;;;26.02;23.88;;;18.00;99.90;;;;;;5040414;28;20044;-77
2021/06/07 07:34:18;;;;;;;27.95;24.88;;;18.00;99.90;;;;;;5028695;28;20061;-77
2021/06/07 07:36:45;;;;;;;29.40;26.77;;;18.10;99.90;;;;;;5035112;28;20041;-77
2021/06/07 07:39:12;;;;;;;28.83;26.33;;;18.10;99.90;;;;;;5041349;28;20098;-76
2021/06/07 07:41:39;;;;;;;28.42;25.88;;;18.10;99.90;;;;;;5026065;28;20049;-77
2021/06/07 07:44:06;;;;;;;27.67;25.15;;;18.10;99.90;;;;;;5026721;28;20522;-77
2021/06/07 07:46:41;;;;;;;27.35;24.90;;;18.30;99.90;;;;;;5041242;28;20045;-77
2021/06/07 07:49:10;;;;;;;29.40;26.67;;;18.50;99.90;;;;;;5033881;28;20422;-77
2021/06/07 07:51:42;;;;;;;27.17;24.42;;;18.40;99.90;;;;;;5006239;28;20045;-76
2021/06/07 07:54:09;;;;;;;28.13;25.45;;;18.60;99.90;;;;;;5026105;28;20044;-77
2021/06/07 07:56:36;;;;;;;27.55;24.75;;;18.80;99.90;;;;;;5024884;28;20048;-77
2021/06/07 07:59:04;;;;;;;27.05;24.52;;;18.90;99.90;;;;;;5040097;28;20204;-77
2021/06/07 08:01:31;;;;;;;28.25;25.85;;;18.90;99.90;;;;;;5017299;28;20561;-77
2021/06/07 08:04:00;;;;;;;28.23;25.75;;;18.90;99.90;;;;;;4993588;28;20075;-77
2021/06/07 08:06:27;;;;;;;27.02;24.73;;;18.90;99.90;;;;;;5030751;28;20057;-77
2021/06/07 08:08:55;;;;;;;27.85;25.40;;;19.10;99.90;;;;;;5031381;28;20057;-77
2021/06/07 08:11:22;;;;;;;26.55;24.25;;;19.30;99.90;;;;;;5011916;28;20063;-77
2021/06/07 08:13:48;;;;;;;26.45;24.10;;;19.60;99.90;;;;;;5014017;28;20049;-73
2021/06/07 08:16:15;;;;;;;26.67;24.15;;;20.20;99.90;;;;;;5034644;28;20593;-73
2021/06/07 08:18:42;;;;;;;28.05;25.40;;;20.40;99.90;;;;;;5015440;28;20050;-73
2021/06/07 08:21:09;;;;;;;27.10;24.58;;;20.40;99.90;;;;;;5030016;28;20052;-74
2021/06/07 08:23:36;;;;;;;25.55;23.48;;;20.40;99.90;;;;;;5033419;28;20490;-73
2021/06/07 08:26:03;;;;;;;25.00;22.65;;;20.00;99.90;;;;;;5042327;28;20060;-73
2021/06/07 08:28:30;;;;;;;24.38;22.27;;;19.90;99.90;;;;;;5006710;28;20126;-72
2021/06/07 08:30:57;;;;;;;27.05;24.30;;;19.70;99.90;;;;;;5029048;28;20057;-73
2021/06/07 08:33:24;;;;;;;27.08;24.50;;;19.70;99.90;;;;;;5036360;28;20241;-73
2021/06/07 08:35:50;;;;;;;28.08;25.52;;;19.40;99.90;;;;;;5032547;28;20503;-73
2021/06/07 08:38:18;;;;;;;27.65;25.02;;;19.40;99.90;;;;;;5031219;28;20427;-73
2021/06/07 08:40:47;;;;;;;27.13;24.48;;;19.50;99.90;;;;;;5031879;28;20049;-73
2021/06/07 08:43:13;;;;;;;26.02;23.90;;;19.50;99.90;;;;;;5043210;28;20118;-74
2021/06/07 08:45:40;;;;;;;27.10;24.70;;;19.70;99.90;;;;;;5024984;28;20102;-74
2021/06/07 08:48:11;;;;;;;25.38;23.17;;;19.70;99.90;;;;;;5049992;22;20057;31
2021/06/07 08:50:37;;;;;;;28.15;25.65;;;19.70;99.90;;;;;;5006407;28;20041;-79
2021/06/07 08:53:04;;;;;;;28.23;25.55;;;19.70;99.90;;;;;;5024782;28;20665;-78
2021/06/07 08:55:34;;;;;;;27.58;25.05;;;19.70;99.90;;;;;;5020087;28;20050;-79
2021/06/07 08:58:04;;;;;;;26.20;23.90;;;19.60;99.90;;;;;;4987988;28;20631;-80
2021/06/07 09:00:40;;;;;;;27.00;24.35;;;19.70;99.90;;;;;;5007356;28;20729;-79
2021/06/07 09:03:14;;;;;;;27.30;24.73;;;19.90;99.90;;;;;;5033846;28;20433;-79
2021/06/07 09:05:43;;;;;;;26.05;23.85;;;19.90;99.90;;;;;;5022112;28;20088;-78
2021/06/07 09:08:13;;;;;;;26.38;24.05;;;19.90;99.90;;;;;;5026111;28;20461;-79
2021/06/07 09:10:49;;;;;;;26.50;24.08;;;20.00;99.90;;;;;;5010231;28;20053;-79
2021/06/07 09:13:18;;;;;;;27.02;24.73;;;20.10;99.90;;;;;;5006898;28;20471;-78
2021/06/07 09:15:51;;;;;;;28.35;25.83;;;20.00;99.90;;;;;;5009864;28;20319;-79
2021/06/07 09:18:32;;;;;;;28.77;26.30;;;19.90;99.90;;;;;;5034535;28;20052;-79
2021/06/07 09:21:04;;;;;;;26.88;24.70;;;19.90;99.90;;;;;;5003819;28;20053;-79
2021/06/07 09:23:52;;;;;;;25.33;22.88;;;20.10;99.90;;;;;;5008320;28;20534;-79
2021/06/07 09:26:28;;;;;;;27.20;24.85;;;20.50;99.90;;;;;;4995481;28;20053;-79
2021/06/07 09:29:00;;;;;;;26.25;24.00;;;20.60;99.90;;;;;;5026406;28;20049;-78
2021/06/07 09:31:36;;;;;;;25.92;23.42;;;20.50;99.90;;;;;;4988877;28;20049;-79
2021/06/07 09:34:08;;;;;;;28.58;25.92;;;20.70;99.90;;;;;;5000007;28;20055;-79
2021/06/07 09:36:40;;;;;;;26.58;24.38;;;20.80;99.90;;;;;;5005642;28;20057;-78
2021/06/07 09:39:11;;;;;;;24.20;22.23;;;21.00;99.90;;;;;;5008773;28;20057;-79
2021/06/07 09:41:46;;;;;;;26.20;23.75;;;21.30;99.90;;;;;;5009804;28;20126;-79
2021/06/07 09:44:22;;;;;;;26.83;24.25;;;21.70;99.90;;;;;;4997610;28;20575;-80
2021/06/07 09:46:50;;;;;;;25.52;23.33;;;21.90;99.90;;;;;;5018510;28;20497;-79
2021/06/07 09:49:20;;;;;;;24.20;22.13;;;21.60;99.90;;;;;;5026296;28;20049;-79
2021/06/07 09:51:59;;;;;;;24.52;22.52;;;21.30;99.90;;;;;;5004480;28;20045;-79
2021/06/07 09:54:27;;;;;;;23.35;21.45;;;21.40;99.90;;;;;;5001620;28;20057;-78
2021/06/07 09:57:01;;;;;;;24.15;22.15;;;21.30;99.90;;;;;;5024601;28;20049;-79
2021/06/07 09:59:32;;;;;;;24.40;21.98;;;21.90;99.90;;;;;;4993189;28;20160;-79
2021/06/07 10:02:01;;;;;;;25.17;22.73;;;22.00;99.90;;;;;;5001766;28;20096;-79
2021/06/07 10:05:00;;;;;;;24.45;22.42;;;21.90;99.90;;;;;;5025568;28;20057;-79
2021/06/07 10:07:27;;;;;;;21.90;19.98;;;21.80;99.90;;;;;;5019010;28;20498;-79
2021/06/07 10:10:19;;;;;;;22.38;20.63;;;22.10;99.90;;;;;;5008955;28;20055;-79
2021/06/07 10:12:47;;;;;;;21.50;19.70;;;21.80;99.90;;;;;;5010908;28;20037;-78
2021/06/07 10:15:32;;;;;;;20.65;19.23;;;22.10;99.90;;;;;;5043146;28;20048;-78
2021/06/07 10:18:03;;;;;;;20.13;18.73;;;22.40;99.90;;;;;;5026868;28;20055;-79
2021/06/07 10:22:59;;;;;;;22.52;20.60;;;22.50;99.90;;;;;;5027591;28;20045;-79
2021/06/07 10:25:26;;;;;;;22.67;20.88;;;22.10;99.90;;;;;;5028805;28;20045;-76
2021/06/07 10:27:53;;;;;;;23.15;21.38;;;22.10;99.90;;;;;;5030863;28;20050;-76
2021/06/07 10:30:24;;;;;;;23.63;21.75;;;22.20;99.90;;;;;;5019745;28;20205;-77
2021/06/07 10:32:52;;;;;;;23.92;22.02;;;22.10;99.90;;;;;;5043687;28;20047;-77
2021/06/07 10:35:36;;;;;;;23.70;21.73;;;21.50;99.90;;;;;;5045926;28;20091;-76
2021/06/07 10:38:10;;;;;;;23.35;21.10;;;21.10;99.90;;;;;;5004506;28;20045;-77
2021/06/07 10:40:49;;;;;;;21.50;19.77;;;21.20;99.90;;;;;;5046201;28;20095;-76
2021/06/07 10:43:16;;;;;;;23.95;21.88;;;21.20;99.90;;;;;;5039164;28;20127;-77
2021/06/07 10:45:43;;;;;;;22.10;20.25;;;21.30;99.90;;;;;;5023937;28;20041;-77
2021/06/07 10:48:12;;;;;;;23.80;21.50;;;21.30;99.90;;;;;;5025651;28;20866;-76
2021/06/07 10:50:43;;;;;;;24.08;21.88;;;21.20;99.90;;;;;;5045139;28;20045;-77
2021/06/07 10:53:25;;;;;;;24.55;22.45;;;20.80;99.90;;;;;;5061002;28;20521;-76
2021/06/07 10:56:08;;;;;;;24.95;22.58;;;20.80;99.90;;;;;;5061481;28;20161;-76
2021/06/07 10:58:48;;;;;;;25.15;22.85;;;20.60;99.90;;;;;;5039535;28;20049;-76
2021/06/07 11:01:15;;;;;;;23.10;21.08;;;20.60;99.90;;;;;;5033809;28;20063;-77
2021/06/07 11:03:56;;;;;;;23.77;21.85;;;20.50;99.90;;;;;;5043906;28;20049;-76
2021/06/07 11:06:23;;;;;;;23.92;21.92;;;20.50;99.90;;;;;;5043174;28;20053;-76
2021/06/07 11:09:09;;;;;;;22.70;20.75;;;20.70;99.90;;;;;;5022428;28;20048;-75
2021/06/07 11:11:47;;;;;;;22.80;20.83;;;20.80;99.90;;;;;;5021109;28;20054;-76
2021/06/07 11:14:15;;;;;;;25.17;22.90;;;20.80;99.90;;;;;;5011283;28;20054;-76
2021/06/07 11:16:45;;;;;;;23.92;22.02;;;20.80;99.90;;;;;;5014280;28;20064;-77
2021/06/07 11:19:15;;;;;;;25.75;23.38;;;20.80;99.90;;;;;;5016062;28;20154;-76
2021/06/07 11:21:58;;;;;;;23.52;21.52;;;20.80;99.90;;;;;;5023538;28;20175;-77
2021/06/07 11:24:34;;;;;;;23.40;21.30;;;20.80;99.90;;;;;;5010756;28;20049;-76
2021/06/07 11:27:34;;;;;;;24.60;22.55;;;20.90;99.90;;;;;;5009211;28;20187;-80
2021/06/07 11:30:15;;;;;;;24.38;22.27;;;21.00;99.90;;;;;;5045952;28;20061;-79
2021/06/07 11:32:42;;;;;;;24.00;22.00;;;20.90;99.90;;;;;;5011566;28;20060;-79
2021/06/07 11:35:42;;;;;;;22.85;20.75;;;20.80;99.90;;;;;;5027459;28;20045;-79
2021/06/07 11:38:28;;;;;;;23.42;21.52;;;21.00;99.90;;;;;;5004008;28;20053;-79
2021/06/07 11:40:57;;;;;;;23.58;21.55;;;21.00;99.90;;;;;;5042639;28;20158;-79
2021/06/07 11:43:46;;;;;;;23.58;21.35;;;21.00;99.90;;;;;;5028461;28;20049;-78
2021/06/07 11:46:48;;;;;;;23.92;21.70;;;21.00;99.90;;;;;;5008468;28;20434;-79
2021/06/07 11:49:17;;;;;;;22.90;21.00;;;21.10;99.90;;;;;;5003253;28;20049;-79
2021/06/07 11:51:46;;;;;;;23.52;21.13;;;21.30;99.90;;;;;;5038348;28;20052;-79
2021/06/07 11:54:25;;;;;;;21.17;19.42;;;21.30;99.90;;;;;;5048944;28;20072;-79
2021/06/07 11:57:00;;;;;;;20.67;18.98;;;20.90;99.90;;;;;;5024437;28;20056;-79
2021/06/07 11:59:32;;;;;;;23.67;21.95;;;20.90;99.90;;;;;;5009233;28;20045;-78
2021/06/07 12:02:00;;;;;;;25.05;23.10;;;21.00;99.90;;;;;;5024897;28;20067;-79
2021/06/07 12:04:32;;;;;;;22.75;20.95;;;20.80;99.90;;;;;;5029846;28;20507;-79
2021/06/07 12:07:00;;;;;;;22.75;20.90;;;20.80;99.90;;;;;;5024868;28;20505;-79
2021/06/07 12:09:28;;;;;;;21.83;19.67;;;20.90;99.90;;;;;;5027162;28;20498;-80
2021/06/07 12:11:55;;;;;;;22.20;20.38;;;21.10;99.90;;;;;;5026767;28;20126;-79
2021/06/07 12:14:27;;;;;;;22.73;20.80;;;21.00;99.90;;;;;;5027095;28;20056;-78
2021/06/07 12:17:00;;;;;;;21.10;19.48;;;21.10;99.90;;;;;;5021103;28;20045;-79
2021/06/07 12:19:40;;;;;;;19.63;17.95;;;21.20;99.90;;;;;;5026365;28;20053;-79
2021/06/07 12:22:23;;;;;;;23.00;21.10;;;21.30;99.90;;;;;;5032797;28;20056;-78
2021/06/07 12:25:01;;;;;;;23.98;22.08;;;21.40;99.90;;;;;;5010199;28;20064;-78
2021/06/07 12:30:19;;;;;;;24.63;22.33;;;20.70;99.90;;;;;;5009066;28;20400;-80
2021/06/07 12:32:49;;;;;;;24.08;21.92;;;20.60;99.90;;;;;;5010329;28;20048;-79
2021/06/07 12:35:23;;;;;;;23.83;21.60;;;20.90;99.90;;;;;;5006995;28;20041;-78
2021/06/07 12:37:51;;;;;;;22.35;20.48;;;20.90;99.90;;;;;;5043540;28;20507;-78
2021/06/07 12:40:34;;;;;;;24.23;22.35;;;20.90;99.90;;;;;;5025144;28;20651;-79
2021/06/07 12:43:07;;;;;;;24.95;22.40;;;20.90;99.90;;;;;;5008724;28;20198;-79
2021/06/07 12:45:45;;;;;;;23.70;21.70;;;20.60;99.90;;;;;;5022892;28;20570;-78